createdAt,value
2018-08-04T00:00:11.594Z,22.36
2018-08-04T00:01:11.611Z,22.34
2018-08-04T00:02:11.636Z,22.33
2018-08-04T00:03:11.661Z,22.31
2018-08-04T00:04:11.687Z,22.28
2018-08-04T00:05:11.712Z,22.30
2018-08-04T00:06:11.738Z,22.21
2018-08-04T00:07:11.765Z,22.21
2018-08-04T00:08:11.793Z,22.23
2018-08-04T00:09:11.819Z,22.26
2018-08-04T00:10:11.841Z,22.23
2018-08-04T00:11:11.876Z,22.25
2018-08-04T00:12:11.893Z,22.18
2018-08-04T00:13:11.908Z,22.14
2018-08-04T00:14:11.933Z,22.12
2018-08-04T00:15:11.959Z,22.08
2018-08-04T00:16:11.985Z,22.15
2018-08-04T00:17:12.061Z,22.07
2018-08-04T00:18:12.036Z,22.04
2018-08-04T00:19:12.063Z,22.07
2018-08-04T00:20:12.088Z,22.07
2018-08-04T00:21:12.114Z,22.06
2018-08-04T00:22:12.141Z,21.97
2018-08-04T00:23:12.179Z,21.96
2018-08-04T00:24:12.192Z,21.96
2018-08-04T00:25:12.218Z,22.00
2018-08-04T00:26:12.232Z,21.89
2018-08-04T00:27:12.258Z,21.88
2018-08-04T00:28:12.284Z,21.91
2018-08-04T00:29:12.310Z,21.91
2018-08-04T00:30:12.336Z,21.92
2018-08-04T00:31:12.371Z,21.83
2018-08-04T00:32:12.389Z,21.84
2018-08-04T00:33:12.417Z,21.81
2018-08-04T00:34:12.439Z,21.92
2018-08-04T00:35:12.465Z,21.89
2018-08-04T00:36:12.491Z,21.75
2018-08-04T00:37:12.504Z,21.77
2018-08-04T00:38:12.530Z,21.81
2018-08-04T00:39:12.556Z,21.75
2018-08-04T00:40:12.610Z,21.70
2018-08-04T00:41:12.609Z,21.77
2018-08-04T00:42:12.634Z,21.75
2018-08-04T00:43:12.660Z,21.70
2018-08-04T00:44:12.699Z,21.70
2018-08-04T00:45:12.712Z,21.68
2018-08-04T00:46:12.743Z,21.66
2018-08-04T00:47:12.752Z,21.69
2018-08-04T00:48:12.777Z,21.75
2018-08-04T00:49:12.803Z,21.69
2018-08-04T00:50:12.829Z,21.68
2018-08-04T00:51:12.855Z,21.66
2018-08-04T00:52:12.890Z,21.59
2018-08-04T00:53:12.909Z,21.60
2018-08-04T00:54:12.934Z,21.56
2018-08-04T00:55:12.959Z,21.63
2018-08-04T00:56:12.973Z,21.60
2018-08-04T00:57:12.998Z,21.51
2018-08-04T00:58:13.024Z,21.53
2018-08-04T00:59:13.050Z,21.53
2018-08-04T01:00:13.089Z,21.54
2018-08-04T01:01:13.101Z,21.48
2018-08-04T01:02:13.128Z,21.56
2018-08-04T01:03:13.155Z,21.43
2018-08-04T01:04:13.179Z,21.63
2018-08-04T01:05:13.196Z,21.51
2018-08-04T01:06:13.220Z,21.48
2018-08-04T01:07:13.245Z,21.47
2018-08-04T01:08:13.272Z,21.41
2018-08-04T01:09:13.297Z,21.45
2018-08-04T01:10:13.324Z,21.48
2018-08-04T01:11:13.350Z,21.47
2018-08-04T01:12:13.376Z,21.44
2018-08-04T01:13:13.401Z,21.44
2018-08-04T01:14:13.416Z,21.33
2018-08-04T01:15:13.441Z,21.33
2018-08-04T01:16:13.465Z,21.32
2018-08-04T01:17:13.492Z,21.33
2018-08-04T01:18:13.520Z,21.32
2018-08-04T01:19:13.545Z,21.33
2018-08-04T01:20:13.569Z,21.29
2018-08-04T01:21:13.595Z,21.32
2018-08-04T01:22:13.622Z,21.29
2018-08-04T01:23:13.635Z,21.32
2018-08-04T01:24:13.661Z,21.30
2018-08-04T01:25:13.688Z,21.28
2018-08-04T01:26:13.713Z,21.26
2018-08-04T01:27:13.739Z,21.25
2018-08-04T01:28:13.765Z,21.28
2018-08-04T01:29:13.791Z,21.22
2018-08-04T01:30:13.817Z,21.23
2018-08-04T01:31:13.831Z,21.22
2018-08-04T01:32:13.858Z,21.22
2018-08-04T01:33:13.882Z,21.14
2018-08-04T01:34:13.913Z,21.20
2018-08-04T01:35:13.933Z,21.17
2018-08-04T01:36:13.963Z,21.25
2018-08-04T01:37:13.985Z,21.25
2018-08-04T01:38:14.013Z,21.22
2018-08-04T01:39:14.026Z,21.17
2018-08-04T01:40:14.051Z,21.13
2018-08-04T01:41:14.078Z,21.17
2018-08-04T01:42:14.104Z,21.08
2018-08-04T01:43:14.130Z,21.08
2018-08-04T01:44:14.156Z,21.01
2018-08-04T01:45:14.182Z,21.03
2018-08-04T01:46:14.207Z,21.07
2018-08-04T01:47:14.220Z,21.05
2018-08-04T01:48:14.246Z,21.05
2018-08-04T01:49:14.271Z,21.05
2018-08-04T01:50:14.299Z,21.01
2018-08-04T01:51:14.324Z,21.00
2018-08-04T01:52:14.352Z,21.05
2018-08-04T01:53:14.376Z,21.03
2018-08-04T01:54:14.391Z,20.95
2018-08-04T01:55:14.416Z,21.00
2018-08-04T01:56:14.442Z,20.93
2018-08-04T01:57:14.467Z,21.03
2018-08-04T01:58:14.493Z,20.96
2018-08-04T01:59:14.565Z,21.01
2018-08-04T02:00:14.545Z,20.90
2018-08-04T02:01:14.559Z,20.85
2018-08-04T02:02:14.586Z,20.90
2018-08-04T02:03:14.610Z,20.85
2018-08-04T02:04:14.636Z,20.82
2018-08-04T02:05:14.663Z,20.82
2018-08-04T02:06:14.689Z,20.90
2018-08-04T02:07:14.733Z,20.83
2018-08-04T02:08:14.740Z,20.78
2018-08-04T02:09:14.754Z,20.78
2018-08-04T02:10:14.780Z,20.78
2018-08-04T02:11:14.805Z,20.80
2018-08-04T02:12:14.832Z,20.74
2018-08-04T02:13:14.858Z,20.68
2018-08-04T02:14:14.883Z,20.73
2018-08-04T02:15:14.909Z,20.75
2018-08-04T02:16:14.922Z,20.71
2018-08-04T02:17:14.948Z,20.67
2018-08-04T02:18:14.987Z,20.68
2018-08-04T02:19:14.999Z,20.70
2018-08-04T02:20:15.026Z,20.66
2018-08-04T02:21:15.051Z,20.70
2018-08-04T02:22:15.069Z,20.59
2018-08-04T02:23:15.099Z,20.64
2018-08-04T02:24:15.117Z,20.59
2018-08-04T02:25:15.144Z,20.60
2018-08-04T02:26:15.169Z,20.59
2018-08-04T02:27:15.195Z,20.63
2018-08-04T02:28:15.221Z,20.55
2018-08-04T02:29:15.234Z,20.56
2018-08-04T02:30:15.286Z,20.49
2018-08-04T02:31:15.288Z,20.52
2018-08-04T02:32:15.312Z,20.48
2018-08-04T02:33:15.338Z,20.50
2018-08-04T02:34:15.367Z,20.52
2018-08-04T02:35:15.378Z,20.48
2018-08-04T02:36:15.404Z,20.49
2018-08-04T02:37:15.429Z,20.46
2018-08-04T02:38:15.459Z,20.39
2018-08-04T02:39:15.481Z,20.36
2018-08-04T02:40:15.508Z,20.34
2018-08-04T02:41:15.524Z,20.37
2018-08-04T02:42:15.548Z,20.48
2018-08-04T02:43:15.572Z,20.46
2018-08-04T02:44:15.598Z,20.30
2018-08-04T02:45:15.624Z,20.39
2018-08-04T02:46:15.653Z,20.37
2018-08-04T02:47:15.679Z,20.36
2018-08-04T02:48:15.693Z,20.24
2018-08-04T02:49:15.719Z,20.15
2018-08-04T02:50:15.743Z,20.24
2018-08-04T02:51:15.769Z,20.26
2018-08-04T02:52:15.799Z,20.24
2018-08-04T02:53:15.807Z,20.22
2018-08-04T02:54:15.833Z,20.26
2018-08-04T02:55:15.858Z,20.24
2018-08-04T02:56:15.897Z,20.24
2018-08-04T02:57:15.909Z,20.11
2018-08-04T02:58:15.936Z,20.10
2018-08-04T02:59:15.962Z,20.18
2018-08-04T03:00:15.977Z,20.10
2018-08-04T03:01:16.003Z,20.15
2018-08-04T03:02:16.041Z,20.11
2018-08-04T03:03:16.053Z,20.14
2018-08-04T03:04:16.084Z,20.12
2018-08-04T03:05:16.093Z,20.12
2018-08-04T03:06:16.118Z,20.15
2018-08-04T03:07:16.145Z,20.10
2018-08-04T03:08:16.170Z,20.12
2018-08-04T03:09:16.196Z,20.02
2018-08-04T03:10:16.222Z,20.08
2018-08-04T03:11:16.237Z,20.08
2018-08-04T03:12:16.272Z,20.03
2018-08-04T03:13:16.288Z,20.07
2018-08-04T03:14:16.314Z,20.10
2018-08-04T03:15:16.340Z,20.07
2018-08-04T03:16:16.371Z,20.02
2018-08-04T03:17:16.379Z,20.03
2018-08-04T03:18:16.405Z,19.99
2018-08-04T03:19:16.431Z,19.97
2018-08-04T03:20:16.458Z,20.03
2018-08-04T03:21:16.484Z,20.07
2018-08-04T03:22:16.498Z,19.99
2018-08-04T03:23:16.523Z,20.03
2018-08-04T03:24:16.549Z,19.96
2018-08-04T03:25:16.574Z,19.89
2018-08-04T03:26:16.601Z,19.89
2018-08-04T03:27:16.627Z,19.90
2018-08-04T03:28:16.639Z,19.93
2018-08-04T03:29:16.667Z,19.89
2018-08-04T03:30:16.705Z,19.99
2018-08-04T03:31:16.732Z,19.96
2018-08-04T03:32:16.743Z,19.93
2018-08-04T03:33:16.759Z,19.89
2018-08-04T03:34:16.783Z,19.96
2018-08-04T03:35:16.810Z,19.92
2018-08-04T03:36:16.836Z,19.81
2018-08-04T03:37:16.861Z,19.81
2018-08-04T03:38:16.885Z,19.90
2018-08-04T03:39:16.902Z,19.92
2018-08-04T03:40:16.927Z,19.94
2018-08-04T03:41:16.951Z,19.89
2018-08-04T03:42:16.977Z,19.89
2018-08-04T03:43:17.004Z,19.90
2018-08-04T03:44:17.018Z,19.89
2018-08-04T03:45:17.047Z,19.85
2018-08-04T03:46:17.071Z,19.90
2018-08-04T03:47:17.095Z,19.89
2018-08-04T03:48:17.121Z,19.84
2018-08-04T03:49:17.134Z,19.81
2018-08-04T03:50:17.160Z,19.85
2018-08-04T03:51:17.185Z,19.93
2018-08-04T03:52:17.214Z,19.84
2018-08-04T03:53:17.251Z,19.92
2018-08-04T03:54:17.264Z,19.87
2018-08-04T03:55:17.278Z,19.79
2018-08-04T03:56:17.303Z,19.82
2018-08-04T03:57:17.330Z,19.82
2018-08-04T03:58:17.358Z,19.90
2018-08-04T03:59:17.383Z,19.82
2018-08-04T04:00:17.408Z,19.87
2018-08-04T04:01:17.420Z,19.87
2018-08-04T04:02:17.447Z,19.90
2018-08-04T04:03:17.473Z,19.90
2018-08-04T04:04:17.498Z,19.78
2018-08-04T04:05:17.513Z,19.82
2018-08-04T04:06:17.538Z,19.78
2018-08-04T04:07:17.563Z,19.81
2018-08-04T04:08:17.591Z,19.89
2018-08-04T04:09:17.615Z,19.92
2018-08-04T04:10:17.641Z,19.79
2018-08-04T04:11:17.655Z,19.87
2018-08-04T04:12:17.680Z,19.81
2018-08-04T04:13:17.710Z,19.89
2018-08-04T04:14:17.732Z,19.85
2018-08-04T04:15:17.758Z,19.99
2018-08-04T04:16:17.785Z,19.94
2018-08-04T04:17:17.799Z,19.87
2018-08-04T04:18:17.825Z,19.90
2018-08-04T04:19:17.851Z,19.93
2018-08-04T04:20:17.876Z,19.92
2018-08-04T04:21:17.901Z,19.92
2018-08-04T04:22:17.928Z,19.94
2018-08-04T04:23:17.940Z,19.94
2018-08-04T04:24:17.967Z,20.02
2018-08-04T04:25:17.993Z,19.94
2018-08-04T04:26:18.019Z,20.04
2018-08-04T04:27:18.045Z,19.99
2018-08-04T04:28:18.060Z,20.02
2018-08-04T04:29:18.090Z,20.04
2018-08-04T04:30:18.113Z,20.03
2018-08-04T04:31:18.140Z,20.02
2018-08-04T04:32:18.163Z,20.04
2018-08-04T04:33:18.177Z,20.14
2018-08-04T04:34:18.202Z,20.08
2018-08-04T04:35:18.228Z,20.14
2018-08-04T04:36:18.253Z,20.12
2018-08-04T04:37:18.282Z,20.17
2018-08-04T04:38:18.306Z,20.12
2018-08-04T04:39:18.331Z,20.11
2018-08-04T04:40:18.345Z,20.15
2018-08-04T04:41:18.372Z,20.15
2018-08-04T04:42:18.397Z,20.12
2018-08-04T04:43:18.423Z,20.21
2018-08-04T04:44:18.450Z,20.22
2018-08-04T04:45:18.464Z,20.19
2018-08-04T04:46:18.488Z,20.24
2018-08-04T04:47:18.514Z,20.27
2018-08-04T04:48:18.539Z,20.24
2018-08-04T04:49:18.566Z,20.33
2018-08-04T04:50:18.593Z,20.21
2018-08-04T04:51:18.617Z,20.32
2018-08-04T04:52:18.633Z,20.36
2018-08-04T04:53:18.670Z,20.37
2018-08-04T04:54:18.687Z,20.34
2018-08-04T04:55:18.716Z,20.40
2018-08-04T04:56:18.735Z,20.33
2018-08-04T04:57:18.762Z,20.40
2018-08-04T04:58:18.778Z,20.42
2018-08-04T04:59:18.800Z,20.48
2018-08-04T05:00:18.840Z,20.46
2018-08-04T05:01:18.854Z,20.46
2018-08-04T05:02:18.878Z,20.52
2018-08-04T05:03:18.905Z,20.53
2018-08-04T05:04:18.930Z,20.46
2018-08-04T05:05:18.956Z,20.53
2018-08-04T05:06:18.970Z,20.58
2018-08-04T05:07:18.999Z,20.59
2018-08-04T05:08:19.022Z,20.67
2018-08-04T05:09:19.049Z,20.63
2018-08-04T05:10:19.077Z,20.63
2018-08-04T05:11:19.100Z,20.71
2018-08-04T05:12:19.114Z,20.74
2018-08-04T05:13:19.166Z,20.80
2018-08-04T05:14:19.165Z,20.80
2018-08-04T05:15:19.190Z,20.85
2018-08-04T05:16:19.216Z,20.78
2018-08-04T05:17:19.242Z,20.85
2018-08-04T05:18:19.268Z,20.90
2018-08-04T05:19:19.300Z,20.93
2018-08-04T05:20:19.321Z,20.93
2018-08-04T05:21:19.336Z,20.96
2018-08-04T05:22:19.361Z,20.95
2018-08-04T05:23:19.389Z,21.10
2018-08-04T05:24:19.412Z,21.05
2018-08-04T05:25:19.442Z,21.10
2018-08-04T05:26:19.464Z,21.15
2018-08-04T05:27:19.490Z,21.25
2018-08-04T05:28:19.516Z,21.23
2018-08-04T05:29:19.530Z,21.22
2018-08-04T05:30:19.568Z,21.25
2018-08-04T05:31:19.582Z,21.26
2018-08-04T05:32:19.607Z,21.29
2018-08-04T05:33:19.632Z,21.33
2018-08-04T05:34:19.671Z,21.40
2018-08-04T05:35:19.684Z,21.38
2018-08-04T05:36:19.710Z,21.47
2018-08-04T05:37:19.748Z,21.48
2018-08-04T05:38:19.762Z,21.50
2018-08-04T05:39:19.780Z,21.45
2018-08-04T05:40:19.802Z,21.48
2018-08-04T05:41:19.832Z,21.68
2018-08-04T05:42:19.859Z,21.68
2018-08-04T05:43:19.938Z,21.69
2018-08-04T05:44:19.907Z,21.78
2018-08-04T05:45:19.932Z,21.84
2018-08-04T05:46:19.958Z,21.85
2018-08-04T05:47:19.986Z,21.92
2018-08-04T05:48:20.010Z,21.97
2018-08-04T05:49:20.041Z,22.08
2018-08-04T05:50:20.062Z,22.10
2018-08-04T05:51:20.078Z,22.18
2018-08-04T05:52:20.101Z,22.15
2018-08-04T05:53:20.128Z,22.26
2018-08-04T05:54:20.152Z,22.21
2018-08-04T05:55:20.178Z,22.31
2018-08-04T05:56:20.219Z,22.36
2018-08-04T05:57:20.230Z,22.41
2018-08-04T05:58:20.256Z,22.49
2018-08-04T05:59:20.281Z,22.43
2018-08-04T06:00:20.321Z,22.62
2018-08-04T06:01:20.334Z,22.65
2018-08-04T06:02:20.362Z,22.58
2018-08-04T06:03:20.398Z,22.70
2018-08-04T06:04:20.411Z,22.71
2018-08-04T06:05:20.440Z,22.77
2018-08-04T06:06:20.463Z,22.77
2018-08-04T06:07:20.489Z,22.95
2018-08-04T06:08:20.516Z,22.93
2018-08-04T06:09:20.541Z,22.92
2018-08-04T06:10:20.568Z,23.06
2018-08-04T06:11:20.610Z,23.11
2018-08-04T06:12:20.624Z,23.20
2018-08-04T06:13:20.645Z,23.25
2018-08-04T06:14:20.671Z,23.40
2018-08-04T06:15:20.698Z,23.42
2018-08-04T06:16:20.723Z,23.44
2018-08-04T06:17:20.749Z,23.54
2018-08-04T06:18:20.776Z,23.62
2018-08-04T06:19:20.801Z,23.62
2018-08-04T06:20:20.849Z,23.74
2018-08-04T06:21:20.853Z,23.76
2018-08-04T06:22:20.879Z,23.85
2018-08-04T06:23:20.905Z,23.95
2018-08-04T06:24:20.931Z,24.06
2018-08-04T06:25:20.956Z,24.10
2018-08-04T06:26:20.996Z,24.11
2018-08-04T06:27:21.008Z,24.26
2018-08-04T06:28:21.069Z,24.41
2018-08-04T06:29:21.060Z,24.59
2018-08-04T06:30:21.086Z,24.59
2018-08-04T06:31:21.112Z,24.69
2018-08-04T06:32:21.148Z,24.75
2018-08-04T06:33:21.168Z,24.92
2018-08-04T06:34:21.202Z,25.01
2018-08-04T06:35:21.229Z,25.24
2018-08-04T06:36:21.254Z,25.40
2018-08-04T06:37:21.281Z,25.56
2018-08-04T06:38:21.307Z,25.71
2018-08-04T06:39:21.333Z,25.85
2018-08-04T06:40:21.363Z,26.13
2018-08-04T06:41:21.397Z,26.26
2018-08-04T06:42:21.423Z,26.51
2018-08-04T06:43:21.449Z,26.79
2018-08-04T06:44:21.474Z,26.97
2018-08-04T06:45:21.504Z,27.22
2018-08-04T06:46:21.540Z,27.41
2018-08-04T06:47:21.566Z,27.71
2018-08-04T06:48:21.592Z,27.78
2018-08-04T06:49:21.629Z,27.95
2018-08-04T06:50:21.655Z,28.16
2018-08-04T06:51:21.683Z,28.37
2018-08-04T06:52:21.724Z,28.64
2018-08-04T06:53:21.746Z,28.83
2018-08-04T06:54:21.787Z,29.03
2018-08-04T06:55:21.810Z,29.30
2018-08-04T06:56:21.835Z,29.42
2018-08-04T06:57:21.875Z,29.62
2018-08-04T06:58:21.914Z,29.79
2018-08-04T06:59:21.938Z,29.99
2018-08-04T07:00:21.964Z,30.17
2018-08-04T07:01:22.009Z,30.33
2018-08-04T07:02:22.030Z,30.51
2018-08-04T07:03:22.067Z,30.69
2018-08-04T07:04:22.093Z,30.73
2018-08-04T07:05:22.132Z,30.95
2018-08-04T07:06:22.157Z,31.10
2018-08-04T07:07:22.196Z,31.14
2018-08-04T07:08:22.223Z,31.37
2018-08-04T07:09:22.262Z,31.42
2018-08-04T07:10:22.300Z,31.73
2018-08-04T07:11:22.325Z,31.79
2018-08-04T07:12:22.364Z,32.02
2018-08-04T07:13:22.391Z,32.15
2018-08-04T07:14:22.427Z,32.26
2018-08-04T07:15:22.466Z,32.29
2018-08-04T07:16:22.493Z,32.44
2018-08-04T07:17:22.536Z,32.63
2018-08-04T07:18:22.570Z,32.78
2018-08-04T07:19:22.595Z,32.91
2018-08-04T07:20:22.635Z,33.04
2018-08-04T07:21:22.672Z,33.01
2018-08-04T07:22:22.699Z,33.15
2018-08-04T07:23:22.750Z,33.28
2018-08-04T07:24:22.781Z,33.39
2018-08-04T07:25:22.817Z,33.55
2018-08-04T07:26:22.841Z,33.61
2018-08-04T07:27:22.883Z,33.70
2018-08-04T07:28:22.916Z,33.79
2018-08-04T07:29:22.956Z,33.85
2018-08-04T07:30:22.994Z,33.92
2018-08-04T07:31:23.019Z,33.95
2018-08-04T07:32:23.062Z,33.97
2018-08-04T07:33:23.095Z,34.09
2018-08-04T07:34:23.204Z,34.21
2018-08-04T07:35:23.164Z,34.29
2018-08-04T07:36:23.198Z,34.44
2018-08-04T07:37:23.238Z,34.41
2018-08-04T07:38:23.275Z,34.48
2018-08-04T07:39:23.315Z,34.50
2018-08-04T07:40:23.386Z,34.59
2018-08-04T07:41:23.379Z,34.71
2018-08-04T07:42:23.418Z,34.78
2018-08-04T07:43:23.455Z,34.89
2018-08-04T07:44:23.495Z,34.98
2018-08-04T07:45:23.533Z,35.08
2018-08-04T07:46:23.571Z,35.12
2018-08-04T07:47:23.612Z,35.20
2018-08-04T07:48:23.648Z,35.30
2018-08-04T07:49:23.700Z,35.35
2018-08-04T07:50:23.740Z,35.31
2018-08-04T07:51:23.755Z,35.38
2018-08-04T07:52:23.795Z,35.45
2018-08-04T07:53:23.828Z,35.47
2018-08-04T07:54:23.866Z,35.56
2018-08-04T07:55:23.905Z,35.57
2018-08-04T07:56:23.942Z,35.64
2018-08-04T07:57:23.981Z,35.60
2018-08-04T07:58:24.020Z,35.64
2018-08-04T07:59:24.066Z,35.64
2018-08-04T08:00:24.097Z,35.66
2018-08-04T08:01:24.135Z,35.69
2018-08-04T08:02:24.173Z,35.71
2018-08-04T08:03:24.214Z,35.75
2018-08-04T08:04:24.251Z,35.76
2018-08-04T08:05:24.290Z,35.69
2018-08-04T08:06:24.326Z,35.68
2018-08-04T08:07:24.366Z,35.74
2018-08-04T08:08:24.403Z,35.69
2018-08-04T08:09:24.443Z,35.72
2018-08-04T08:10:24.521Z,35.78
2018-08-04T08:11:24.534Z,35.66
2018-08-04T08:12:24.557Z,35.81
2018-08-04T08:13:24.598Z,35.71
2018-08-04T08:14:24.647Z,35.68
2018-08-04T08:15:24.673Z,35.78
2018-08-04T08:16:24.711Z,35.91
2018-08-04T08:17:24.750Z,35.91
2018-08-04T08:18:24.787Z,35.93
2018-08-04T08:19:24.839Z,35.90
2018-08-04T08:20:24.885Z,35.97
2018-08-04T08:21:24.915Z,35.97
2018-08-04T08:22:24.955Z,35.98
2018-08-04T08:23:24.993Z,36.09
2018-08-04T08:24:25.032Z,36.09
2018-08-04T08:25:25.069Z,36.01
2018-08-04T08:26:25.109Z,36.09
2018-08-04T08:27:25.146Z,35.96
2018-08-04T08:28:25.185Z,36.01
2018-08-04T08:29:25.224Z,35.97
2018-08-04T08:30:25.263Z,35.93
2018-08-04T08:31:25.367Z,35.87
2018-08-04T08:32:25.339Z,35.78
2018-08-04T08:33:25.376Z,35.68
2018-08-04T08:34:25.421Z,35.59
2018-08-04T08:35:25.454Z,35.57
2018-08-04T08:36:25.493Z,35.50
2018-08-04T08:37:25.535Z,35.37
2018-08-04T08:38:25.563Z,35.35
2018-08-04T08:39:25.595Z,35.19
2018-08-04T08:40:25.636Z,35.13
2018-08-04T08:41:25.673Z,35.00
2018-08-04T08:42:25.723Z,34.93
2018-08-04T08:43:25.750Z,34.79
2018-08-04T08:44:25.776Z,34.73
2018-08-04T08:45:25.813Z,34.63
2018-08-04T08:46:25.852Z,34.63
2018-08-04T08:47:25.890Z,34.50
2018-08-04T08:48:25.929Z,34.43
2018-08-04T08:49:25.956Z,34.46
2018-08-04T08:50:25.993Z,34.25
2018-08-04T08:51:26.032Z,34.26
2018-08-04T08:52:26.060Z,34.21
2018-08-04T08:53:26.287Z,34.10
2018-08-04T08:54:26.135Z,34.10
2018-08-04T08:55:26.173Z,34.00
2018-08-04T08:56:26.199Z,33.94
2018-08-04T08:57:26.238Z,33.91
2018-08-04T08:58:26.276Z,33.76
2018-08-04T08:59:26.301Z,33.77
2018-08-04T09:00:26.340Z,33.58
2018-08-04T09:01:26.388Z,33.47
2018-08-04T09:02:26.404Z,33.54
2018-08-04T09:03:26.443Z,33.42
2018-08-04T09:04:26.482Z,33.42
2018-08-04T09:05:26.509Z,33.35
2018-08-04T09:06:26.548Z,33.40
2018-08-04T09:07:26.575Z,33.39
2018-08-04T09:08:26.610Z,33.39
2018-08-04T09:09:26.649Z,33.39
2018-08-04T09:10:26.674Z,33.42
2018-08-04T09:11:26.713Z,33.33
2018-08-04T09:12:26.752Z,33.40
2018-08-04T09:13:26.777Z,33.36
2018-08-04T09:14:26.816Z,33.31
2018-08-04T09:15:26.842Z,33.42
2018-08-04T09:16:26.881Z,33.33
2018-08-04T09:17:26.918Z,33.47
2018-08-04T09:18:26.957Z,33.39
2018-08-04T09:19:26.986Z,33.42
2018-08-04T09:20:27.022Z,33.38
2018-08-04T09:21:27.048Z,33.38
2018-08-04T09:22:27.087Z,33.45
2018-08-04T09:23:27.113Z,33.32
2018-08-04T09:24:27.151Z,33.29
2018-08-04T09:25:27.189Z,33.33
2018-08-04T09:26:27.216Z,33.35
2018-08-04T09:27:27.254Z,33.38
2018-08-04T09:28:27.292Z,33.33
2018-08-04T09:29:27.318Z,33.38
2018-08-04T09:30:27.355Z,33.48
2018-08-04T09:31:27.396Z,33.42
2018-08-04T09:32:27.421Z,33.51
2018-08-04T09:33:27.458Z,33.54
2018-08-04T09:34:27.497Z,33.50
2018-08-04T09:35:27.524Z,33.57
2018-08-04T09:36:27.561Z,33.58
2018-08-04T09:37:27.600Z,33.61
2018-08-04T09:38:27.627Z,33.66
2018-08-04T09:39:27.664Z,33.69
2018-08-04T09:40:27.703Z,33.73
2018-08-04T09:41:27.740Z,33.75
2018-08-04T09:42:27.768Z,33.79
2018-08-04T09:43:27.805Z,33.76
2018-08-04T09:44:27.843Z,33.88
2018-08-04T09:45:27.869Z,33.95
2018-08-04T09:46:27.909Z,34.00
2018-08-04T09:47:27.947Z,34.00
2018-08-04T09:48:27.985Z,34.07
2018-08-04T09:49:28.037Z,34.18
2018-08-04T09:50:28.049Z,34.07
2018-08-04T09:51:28.090Z,34.24
2018-08-04T09:52:28.163Z,34.22
2018-08-04T09:53:28.166Z,34.31
2018-08-04T09:54:28.203Z,34.26
2018-08-04T09:55:28.241Z,34.24
2018-08-04T09:56:28.279Z,34.29
2018-08-04T09:57:28.305Z,34.26
2018-08-04T09:58:28.346Z,34.32
2018-08-04T09:59:28.437Z,34.44
2018-08-04T10:00:28.422Z,34.47
2018-08-04T10:01:28.459Z,34.58
2018-08-04T10:02:28.499Z,34.71
2018-08-04T10:03:28.538Z,34.73
2018-08-04T10:04:28.575Z,34.85
2018-08-04T10:05:28.613Z,34.94
2018-08-04T10:06:28.652Z,35.13
2018-08-04T10:07:28.692Z,35.26
2018-08-04T10:08:28.729Z,35.34
2018-08-04T10:09:28.768Z,35.42
2018-08-04T10:10:28.805Z,35.54
2018-08-04T10:11:28.853Z,35.78
2018-08-04T10:12:28.884Z,35.88
2018-08-04T10:13:28.921Z,35.96
2018-08-04T10:14:28.960Z,36.20
2018-08-04T10:15:29.001Z,36.22
2018-08-04T10:16:29.041Z,36.41
2018-08-04T10:17:29.075Z,36.55
2018-08-04T10:18:29.113Z,36.66
2018-08-04T10:19:29.152Z,36.75
2018-08-04T10:20:29.192Z,36.88
2018-08-04T10:21:29.230Z,36.82
2018-08-04T10:22:29.279Z,37.11
2018-08-04T10:23:29.319Z,37.19
2018-08-04T10:24:29.356Z,37.58
2018-08-04T10:25:29.395Z,37.79
2018-08-04T10:26:29.434Z,38.12
2018-08-04T10:27:29.485Z,38.19
2018-08-04T10:28:29.525Z,38.47
2018-08-04T10:29:29.561Z,38.58
2018-08-04T10:30:29.601Z,39.01
2018-08-04T10:31:29.655Z,39.20
2018-08-04T10:32:29.743Z,39.39
2018-08-04T10:33:29.729Z,39.64
2018-08-04T10:34:29.779Z,39.66
2018-08-04T10:35:29.826Z,39.70
2018-08-04T10:36:29.856Z,39.85
2018-08-04T10:37:29.906Z,39.98
2018-08-04T10:38:29.946Z,39.98
2018-08-04T10:39:29.995Z,40.14
2018-08-04T10:40:30.035Z,40.17
2018-08-04T10:41:30.072Z,40.20
2018-08-04T10:42:30.112Z,40.23
2018-08-04T10:43:30.162Z,40.32
2018-08-04T10:44:30.200Z,40.29
2018-08-04T10:45:30.239Z,40.46
2018-08-04T10:46:30.289Z,40.51
2018-08-04T10:47:30.328Z,40.62
2018-08-04T10:48:30.368Z,40.69
2018-08-04T10:49:30.435Z,40.70
2018-08-04T10:50:30.456Z,40.78
2018-08-04T10:51:30.495Z,40.81
2018-08-04T10:52:30.546Z,40.77
2018-08-04T10:53:30.585Z,40.77
2018-08-04T10:54:30.623Z,40.85
2018-08-04T10:55:30.674Z,40.86
2018-08-04T10:56:30.711Z,41.07
2018-08-04T10:57:30.750Z,41.04
2018-08-04T10:58:30.801Z,41.14
2018-08-04T10:59:30.839Z,41.14
2018-08-04T11:00:30.878Z,41.27
2018-08-04T11:01:30.929Z,41.33
2018-08-04T11:02:30.971Z,41.10
2018-08-04T11:03:31.006Z,41.10
2018-08-04T11:04:31.058Z,41.12
2018-08-04T11:05:31.095Z,40.92
2018-08-04T11:06:31.135Z,40.80
2018-08-04T11:07:31.185Z,40.49
2018-08-04T11:08:31.223Z,40.48
2018-08-04T11:09:31.262Z,40.17
2018-08-04T11:10:31.312Z,40.07
2018-08-04T11:11:31.338Z,39.88
2018-08-04T11:12:31.407Z,39.75
2018-08-04T11:13:31.427Z,39.68
2018-08-04T11:14:31.466Z,39.70
2018-08-04T11:15:31.504Z,39.54
2018-08-04T11:16:31.543Z,39.60
2018-08-04T11:17:31.580Z,39.48
2018-08-04T11:18:31.620Z,39.37
2018-08-04T11:19:31.659Z,39.27
2018-08-04T11:20:31.710Z,39.27
2018-08-04T11:21:31.748Z,39.14
2018-08-04T11:22:31.799Z,39.11
2018-08-04T11:23:31.828Z,38.88
2018-08-04T11:24:31.863Z,38.85
2018-08-04T11:25:31.903Z,38.75
2018-08-04T11:26:31.940Z,38.63
2018-08-04T11:27:31.979Z,38.66
2018-08-04T11:28:32.017Z,38.84
2018-08-04T11:29:32.056Z,39.04
2018-08-04T11:30:32.094Z,39.15
2018-08-04T11:31:32.132Z,39.12
2018-08-04T11:32:32.171Z,39.29
2018-08-04T11:33:32.208Z,39.37
2018-08-04T11:34:32.247Z,39.38
2018-08-04T11:35:32.286Z,39.59
2018-08-04T11:36:32.337Z,39.66
2018-08-04T11:37:32.387Z,39.78
2018-08-04T11:38:32.414Z,39.71
2018-08-04T11:39:32.451Z,39.73
2018-08-04T11:40:32.491Z,39.70
2018-08-04T11:41:32.528Z,39.67
2018-08-04T11:42:32.567Z,39.66
2018-08-04T11:43:32.605Z,39.60
2018-08-04T11:44:32.650Z,39.48
2018-08-04T11:45:32.750Z,39.23
2018-08-04T11:46:32.722Z,39.10
2018-08-04T11:47:32.762Z,38.95
2018-08-04T11:48:32.798Z,38.84
2018-08-04T11:49:32.840Z,38.75
2018-08-04T11:50:32.875Z,38.73
2018-08-04T11:51:32.970Z,38.60
2018-08-04T11:52:32.952Z,38.48
2018-08-04T11:53:32.990Z,38.42
2018-08-04T11:54:33.035Z,38.39
2018-08-04T11:55:33.066Z,38.38
2018-08-04T11:56:33.105Z,38.36
2018-08-04T11:57:33.143Z,38.27
2018-08-04T11:58:33.182Z,38.23
2018-08-04T11:59:33.233Z,38.27
2018-08-04T12:00:33.261Z,38.25
2018-08-04T12:01:33.297Z,38.12
2018-08-04T12:02:33.336Z,38.04
2018-08-04T12:03:33.363Z,38.00
2018-08-04T12:04:33.402Z,38.01
2018-08-04T12:05:33.481Z,37.98
2018-08-04T12:06:33.476Z,37.91
2018-08-04T12:07:33.518Z,37.90
2018-08-04T12:08:33.554Z,37.94
2018-08-04T12:09:33.593Z,37.83
2018-08-04T12:10:33.621Z,37.98
2018-08-04T12:11:33.656Z,37.88
2018-08-04T12:12:33.695Z,37.85
2018-08-04T12:13:33.735Z,38.02
2018-08-04T12:14:33.772Z,37.98
2018-08-04T12:15:33.819Z,38.13
2018-08-04T12:16:33.855Z,38.22
2018-08-04T12:17:33.886Z,38.36
2018-08-04T12:18:33.926Z,38.41
2018-08-04T12:19:33.976Z,38.51
2018-08-04T12:20:34.005Z,38.60
2018-08-04T12:21:34.028Z,38.75
2018-08-04T12:22:34.072Z,38.79
2018-08-04T12:23:34.117Z,38.84
2018-08-04T12:24:34.145Z,38.88
2018-08-04T12:25:34.214Z,38.85
2018-08-04T12:26:34.220Z,38.69
2018-08-04T12:27:34.260Z,38.75
2018-08-04T12:28:34.310Z,38.75
2018-08-04T12:29:34.338Z,38.73
2018-08-04T12:30:34.373Z,38.87
2018-08-04T12:31:34.517Z,38.96
2018-08-04T12:32:34.450Z,38.98
2018-08-04T12:33:34.489Z,39.07
2018-08-04T12:34:34.527Z,39.12
2018-08-04T12:35:34.567Z,39.33
2018-08-04T12:36:34.604Z,39.48
2018-08-04T12:37:34.649Z,39.48
2018-08-04T12:38:34.681Z,39.59
2018-08-04T12:39:34.721Z,39.71
2018-08-04T12:40:34.759Z,39.66
2018-08-04T12:41:34.808Z,39.70
2018-08-04T12:42:34.848Z,39.64
2018-08-04T12:43:34.899Z,39.70
2018-08-04T12:44:34.925Z,39.70
2018-08-04T12:45:34.996Z,39.73
2018-08-04T12:46:35.001Z,39.83
2018-08-04T12:47:35.040Z,39.85
2018-08-04T12:48:35.079Z,39.78
2018-08-04T12:49:35.116Z,39.88
2018-08-04T12:50:35.155Z,39.79
2018-08-04T12:51:35.193Z,39.88
2018-08-04T12:52:35.232Z,39.93